createdAt,value
2022-08-03T00:12:51.260Z,4.95
2022-08-03T00:42:54.227Z,4.60
2022-08-03T01:12:57.665Z,4.67
2022-08-03T01:43:00.919Z,4.23
2022-08-03T02:13:04.385Z,4.10
2022-08-03T02:43:07.353Z,5.77
2022-08-03T03:13:10.724Z,5.17
2022-08-03T03:43:13.545Z,6.67
2022-08-03T04:13:16.762Z,5.20
2022-08-03T04:43:20.526Z,6.60
2022-08-03T05:13:23.839Z,6.33
2022-08-03T05:43:26.552Z,5.30
2022-08-03T06:13:29.787Z,3.73
2022-08-03T06:43:35.925Z,5.63
2022-08-03T07:13:39.131Z,5.53
2022-08-03T07:43:42.288Z,5.30
2022-08-03T08:13:45.976Z,4.40
2022-08-03T08:43:49.255Z,4.17
2022-08-03T09:13:52.802Z,3.50
2022-08-03T09:43:55.494Z,2.90
2022-08-03T10:14:01.506Z,2.33
2022-08-03T10:44:04.454Z,2.40
2022-08-03T11:14:08.311Z,2.20
2022-08-03T11:44:11.134Z,2.63
2022-08-03T12:14:49.050Z,2.20
2022-08-03T12:44:37.304Z,2.33
2022-08-03T13:14:40.586Z,2.17
2022-08-03T13:44:44.022Z,2.40
2022-08-03T14:14:47.852Z,2.93
2022-08-03T14:44:50.814Z,2.83
2022-08-03T15:14:54.193Z,2.60
2022-08-03T15:44:57.387Z,2.30
2022-08-03T16:15:00.714Z,3.10
2022-08-03T16:45:03.951Z,2.70
2022-08-03T17:15:07.247Z,3.53
2022-08-03T17:45:15.846Z,2.95
2022-08-03T18:15:21.203Z,3.60
2022-08-03T18:45:57.794Z,4.00
2022-08-03T19:15:51.362Z,4.10
2022-08-03T19:46:06.451Z,4.60
2022-08-03T20:16:11.010Z,4.93
2022-08-03T20:46:31.700Z,6.40
2022-08-03T21:16:38.417Z,6.45
2022-08-03T21:46:41.173Z,6.20
2022-08-03T22:16:44.868Z,7.17
2022-08-03T22:46:47.591Z,6.87
2022-08-03T23:16:51.209Z,7.50
2022-08-03T23:46:53.945Z,7.90
